Time,TemperatureF,DewpointF,PressureIn,WindDirection,WindDirectionDegrees,WindSpeedMPH,WindSpeedGustMPH,Humidity,HourlyPrecipIn,Conditions,Clouds,dailyrainin,SoftwareType,DateUTC
2013-06-09 00:01:00,59.5,55.6,29.89,ENE,68,0.0,0.0,87,0.00,RA,,0.00,WeatherDisplay:10.37,2013-06-09 04:01:00,
2013-06-09 00:06:00,59.2,55.3,29.89,ENE,68,0.0,0.0,87,0.00,RA,,0.00,WeatherDisplay:10.37,2013-06-09 04:06:00,
2013-06-09 00:11:00,59.0,55.1,29.89,West,270,0.0,0.0,87,0.00,CLR,,0.00,WeatherDisplay:10.37,2013-06-09 04:11:00,
2013-06-09 00:16:00,59.0,55.4,29.90,West,270,0.0,0.0,88,0.00,CLR,,0.00,WeatherDisplay:10.37,2013-06-09 04:16:00,
2013-06-09 00:21:00,59.0,55.4,29.90,WNW,292,0.0,0.0,88,0.00,CLR,,0.00,WeatherDisplay:10.37,2013-06-09 04:21:00,
2013-06-09 00:26:00,58.8,55.3,29.90,NNE,22,0.0,0.0,88,0.00,CLR,,0.00,WeatherDisplay:10.37,2013-06-09 04:26:00,
2013-06-09 00:32:00,58.8,55.6,29.90,NNE,22,0.0,0.0,89,0.00,CLR,,0.00,WeatherDisplay:10.37,2013-06-09 04:32:00,
2013-06-09 00:37:00,58.8,55.3,29.90,NNE,22,0.0,0.0,88,0.00,CLR,,0.00,WeatherDisplay:10.37,2013-06-09 04:37:00,
2013-06-09 00:42:00,58.5,55.0,29.91,NNE,22,0.0,0.0,88,0.00,CLR,,0.00,WeatherDisplay:10.37,2013-06-09 04:42:00,
2013-06-09 00:47:00,58.5,55.0,29.91,NE,45,0.0,0.0,88,0.00,CLR,,0.00,WeatherDisplay:10.37,2013-06-09 04:47:00,
2013-06-09 00:52:00,58.1,54.6,29.90,NE,45,0.0,0.0,88,0.00,CLR,,0.00,WeatherDisplay:10.37,2013-06-09 04:52:00,
2013-06-09 00:57:00,58.3,55.1,29.90,NE,45,0.0,0.0,89,0.00,CLR,,0.00,WeatherDisplay:10.37,2013-06-09 04:57:00,
2013-06-09 01:02:00,57.9,54.7,29.91,NNE,22,0.0,0.0,89,0.00,CLR,,0.00,WeatherDisplay:10.37,2013-06-09 05:02:00,
2013-06-09 01:07:00,57.9,55.0,29.91,West,270,0.0,0.0,90,0.00,CLR,,0.00,WeatherDisplay:10.37,2013-06-09 05:07:00,
2013-06-09 01:12:00,57.9,55.0,29.91,SSE,158,0.0,0.0,90,0.00,CLR,,0.00,WeatherDisplay:10.37,2013-06-09 05:12:00,
2013-06-09 01:17:00,58.1,55.2,29.91,NNE,22,0.0,0.0,90,0.00,CLR,,0.00,WeatherDisplay:10.37,2013-06-09 05:17:00,
2013-06-09 01:22:00,58.1,55.5,29.91,ENE,68,0.0,0.0,91,0.00,CLR,,0.00,WeatherDisplay:10.37,2013-06-09 05:22:00,
2013-06-09 01:27:00,57.9,55.3,29.92,NNE,22,0.0,0.0,91,0.00,CLR,,0.00,WeatherDisplay:10.37,2013-06-09 05:27:00,
2013-06-09 01:32:00,57.7,55.1,29.92,NNE,22,0.0,0.0,91,0.00,CLR,,0.00,WeatherDisplay:10.37,2013-06-09 05:32:00,
2013-06-09 01:37:00,57.6,55.0,29.92,NNE,22,0.0,0.0,91,0.00,CLR,,0.00,WeatherDisplay:10.37,2013-06-09 05:37:00,
2013-06-09 01:42:00,57.6,55.0,29.92,NNE,22,0.0,0.0,91,0.00,CLR,,0.00,WeatherDisplay:10.37,2013-06-09 05:42:00,
2013-06-09 01:47:00,57.2,54.6,29.92,NNE,22,0.0,0.0,91,0.00,CLR,,0.00,WeatherDisplay:10.37,2013-06-09 05:47:00,
2013-06-09 01:52:00,56.8,54.2,29.91,SSE,158,0.0,0.0,91,0.00,CLR,,0.00,WeatherDisplay:10.37,2013-06-09 05:52:00,
2013-06-09 01:57:00,57.0,54.4,29.91,West,270,0.0,0.0,91,0.00,CLR,,0.00,WeatherDisplay:10.37,2013-06-09 05:57:00,
2013-06-09 02:02:00,57.0,54.4,29.92,NNE,22,0.0,0.0,91,0.00,CLR,,0.00,WeatherDisplay:10.37,2013-06-09 06:02:00,
2013-06-09 02:07:00,56.8,54.2,29.92,NNE,22,0.0,0.0,91,0.00,CLR,,0.00,WeatherDisplay:10.37,2013-06-09 06:07:00,
2013-06-09 02:12:00,56.8,54.2,29.92,NW,315,0.0,0.0,91,0.00,CLR,,0.00,WeatherDisplay:10.37,2013-06-09 06:12:00,
2013-06-09 02:17:00,56.7,54.1,29.92,WNW,292,0.0,0.0,91,0.00,CLR,,0.00,WeatherDisplay:10.37,2013-06-09 06:17:00,
2013-06-09 02:22:00,56.5,53.9,29.92,South,180,0.0,0.0,91,0.00,CLR,,0.00,WeatherDisplay:10.37,2013-06-09 06:22:00,
2013-06-09 02:27:00,56.3,53.7,29.92,NNE,22,0.0,0.0,91,0.00,CLR,,0.00,WeatherDisplay:10.37,2013-06-09 06:27:00,
2013-06-09 02:32:00,56.3,53.7,29.92,WNW,292,0.0,0.0,91,0.00,CLR,,0.00,WeatherDisplay:10.37,2013-06-09 06:32:00,
2013-06-09 02:37:00,56.1,53.5,29.92,NNE,22,0.0,0.0,91,0.00,CLR,,0.00,WeatherDisplay:10.37,2013-06-09 06:37:00,
2013-06-09 02:42:00,55.9,53.3,29.91,WNW,292,0.0,0.0,91,0.00,CLR,,0.00,WeatherDisplay:10.37,2013-06-09 06:42:00,
2013-06-09 02:47:00,56.1,53.5,29.91,NW,315,0.0,0.0,91,0.00,CLR,,0.00,WeatherDisplay:10.37,2013-06-09 06:47:00,
2013-06-09 02:52:00,56.1,53.5,29.92,West,270,0.0,0.0,91,0.00,CLR,,0.00,WeatherDisplay:10.37,2013-06-09 06:52:00,
2013-06-09 02:57:00,56.1,53.8,29.92,West,270,0.0,0.0,92,0.00,CLR,,0.00,WeatherDisplay:10.37,2013-06-09 06:57:00,
2013-06-09 03:02:00,55.9,53.6,29.92,WNW,292,0.0,0.0,92,0.00,CLR,,0.00,WeatherDisplay:10.37,2013-06-09 07:02:00,
2013-06-09 03:07:00,55.9,53.6,29.92,ESE,112,0.0,0.0,92,0.00,CLR,,0.00,WeatherDisplay:10.37,2013-06-09 07:07:00,
2013-06-09 03:12:00,55.6,53.3,29.92,NE,45,0.0,0.0,92,0.00,CLR,,0.00,WeatherDisplay:10.37,2013-06-09 07:12:00,
2013-06-09 03:17:00,55.6,53.3,29.92,WNW,292,0.0,0.0,92,0.00,CLR,,0.00,WeatherDisplay:10.37,2013-06-09 07:17:00,
2013-06-09 03:22:00,55.6,53.3,29.92,WNW,292,0.0,0.0,92,0.00,CLR,,0.00,WeatherDisplay:10.37,2013-06-09 07:22:00,
2013-06-09 03:27:00,55.4,53.1,29.93,WSW,248,0.0,0.0,92,0.00,CLR,,0.00,WeatherDisplay:10.37,2013-06-09 07:27:00,
2013-06-09 03:32:00,55.6,53.3,29.93,ESE,112,0.0,0.0,92,0.00,CLR,,0.00,WeatherDisplay:10.37,2013-06-09 07:32:00,
2013-06-09 03:37:00,55.6,53.3,29.93,WNW,292,0.0,0.0,92,0.00,CLR,,0.00,WeatherDisplay:10.37,2013-06-09 07:37:00,
2013-06-09 03:42:00,55.8,53.5,29.93,WNW,292,0.0,0.0,92,0.00,CLR,,0.00,WeatherDisplay:10.37,2013-06-09 07:42:00,
2013-06-09 03:47:00,55.6,53.3,29.93,NE,45,0.0,0.0,92,0.00,CLR,,0.00,WeatherDisplay:10.37,2013-06-09 07:47:00,
2013-06-09 03:52:00,55.4,53.1,29.93,NE,45,0.0,0.0,92,0.00,CLR,,0.00,WeatherDisplay:10.37,2013-06-09 07:52:00,
2013-06-09 03:57:00,55.0,52.7,29.93,NE,45,0.0,0.0,92,0.00,CLR,,0.00,WeatherDisplay:10.37,2013-06-09 07:57:00,
2013-06-09 04:03:00,55.0,52.7,29.94,NE,45,0.0,0.0,92,0.00,CLR,,0.00,WeatherDisplay:10.37,2013-06-09 08:03:00,
2013-06-09 04:08:00,54.9,52.6,29.94,NE,45,0.0,0.0,92,0.00,CLR,,0.00,WeatherDisplay:10.37,2013-06-09 08:08:00,
2013-06-09 04:13:00,54.9,52.6,29.94,NE,45,0.0,0.0,92,0.00,CLR,,0.00,WeatherDisplay:10.37,2013-06-09 08:13:00,
2013-06-09 04:18:00,54.7,52.4,29.94,NNE,22,0.0,0.0,92,0.00,CLR,,0.00,WeatherDisplay:10.37,2013-06-09 08:18:00,
2013-06-09 04:23:00,55.4,53.4,29.94,ENE,68,0.0,0.0,93,0.00,CLR,,0.00,WeatherDisplay:10.37,2013-06-09 08:23:00,
2013-06-09 04:28:00,54.9,52.9,29.94,ENE,68,0.0,0.0,93,0.00,CLR,,0.00,WeatherDisplay:10.37,2013-06-09 08:28:00,
2013-06-09 04:33:00,54.9,52.9,29.94,NNE,22,0.0,0.0,93,0.00,CLR,,0.00,WeatherDisplay:10.37,2013-06-09 08:33:00,
2013-06-09 04:38:00,54.9,52.9,29.94,NNE,22,0.0,0.0,93,0.00,CLR,,0.00,WeatherDisplay:10.37,2013-06-09 08:38:00,
2013-06-09 04:43:00,55.0,53.0,29.94,NE,45,0.0,0.0,93,0.00,CLR,,0.00,WeatherDisplay:10.37,2013-06-09 08:43:00,
2013-06-09 04:48:00,54.9,52.9,29.94,NE,45,0.0,0.0,93,0.00,CLR,,0.00,WeatherDisplay:10.37,2013-06-09 08:48:00,
2013-06-09 04:53:00,54.5,52.5,29.94,NE,45,0.0,0.0,93,0.00,CLR,,0.00,WeatherDisplay:10.37,2013-06-09 08:53:00,
2013-06-09 04:58:00,54.5,52.5,29.94,NE,45,0.0,0.0,93,0.00,CLR,,0.00,WeatherDisplay:10.37,2013-06-09 08:58:00,
2013-06-09 05:03:00,54.3,52.3,29.94,NE,45,0.0,0.0,93,0.00,CLR,,0.00,WeatherDisplay:10.37,2013-06-09 09:03:00,
2013-06-09 05:08:00,54.5,52.5,29.94,SE,135,0.0,0.0,93,0.00,CLR,,0.00,WeatherDisplay:10.37,2013-06-09 09:08:00,
2013-06-09 05:13:00,54.1,52.1,29.94,NE,45,0.0,0.0,93,0.00,CLR,,0.00,WeatherDisplay:10.37,2013-06-09 09:13:00,
2013-06-09 05:18:00,54.0,52.0,29.95,NNE,22,0.0,0.0,93,0.00,CLR,,0.00,WeatherDisplay:10.37,2013-06-09 09:18:00,
2013-06-09 05:23:00,54.1,52.1,29.95,NNE,22,0.0,0.0,93,0.00,CLR,,0.00,WeatherDisplay:10.37,2013-06-09 09:23:00,
2013-06-09 05:28:00,54.3,52.3,29.95,NNE,22,0.0,0.0,93,0.00,CLR,,0.00,WeatherDisplay:10.37,2013-06-09 09:28:00,
2013-06-09 05:33:00,54.5,52.5,29.95,NE,45,0.0,0.0,93,0.00,CLR,,0.00,WeatherDisplay:10.37,2013-06-09 09:33:00,
2013-06-09 05:38:00,54.5,52.5,29.95,NE,45,0.0,0.0,93,0.00,CLR,,0.00,WeatherDisplay:10.37,2013-06-09 09:38:00,
2013-06-09 05:43:00,54.5,52.5,29.95,NE,45,0.0,0.0,93,0.00,CLR,,0.00,WeatherDisplay:10.37,2013-06-09 09:43:00,
2013-06-09 05:48:00,54.7,52.7,29.95,NE,45,0.0,0.0,93,0.00,CLR,,0.00,WeatherDisplay:10.37,2013-06-09 09:48:00,
2013-06-09 05:53:00,55.0,53.0,29.95,NE,45,0.0,0.0,93,0.00,CLR,,0.00,WeatherDisplay:10.37,2013-06-09 09:53:00,
2013-06-09 05:58:00,55.9,53.9,29.95,NE,45,0.0,0.0,93,0.00,CLR,,0.00,WeatherDisplay:10.37,2013-06-09 09:58:00,
2013-06-09 06:03:00,56.7,54.7,29.96,NE,45,0.0,0.0,93,0.00,CLR,,0.00,WeatherDisplay:10.37,2013-06-09 10:03:00,
2013-06-09 06:08:00,57.6,55.9,29.96,NE,45,0.0,0.0,94,0.00,CLR,,0.00,WeatherDisplay:10.37,2013-06-09 10:08:00,
2013-06-09 06:13:00,57.7,56.0,29.96,NE,45,0.0,0.0,94,0.00,CLR,,0.00,WeatherDisplay:10.37,2013-06-09 10:13:00,
2013-06-09 06:18:00,59.4,57.7,29.96,NE,45,0.0,0.0,94,0.00,CLR,,0.00,WeatherDisplay:10.37,2013-06-09 10:18:00,
2013-06-09 06:23:00,60.3,58.6,29.96,ESE,112,0.0,0.0,94,0.00,CLR,,0.00,WeatherDisplay:10.37,2013-06-09 10:23:00,
2013-06-09 06:28:00,61.2,58.2,29.96,NE,45,0.0,0.0,90,0.00,CLR,,0.00,WeatherDisplay:10.37,2013-06-09 10:28:00,
2013-06-09 06:33:00,62.4,58.5,29.96,NE,45,0.0,0.0,87,0.00,CLR,,0.00,WeatherDisplay:10.37,2013-06-09 10:33:00,
2013-06-09 06:38:00,63.7,59.1,29.96,NE,45,0.0,0.0,85,0.00,CLR,,0.00,WeatherDisplay:10.37,2013-06-09 10:38:00,
2013-06-09 06:43:00,64.8,59.2,29.96,East,90,0.0,0.0,82,0.00,CLR,,0.00,WeatherDisplay:10.37,2013-06-09 10:43:00,
2013-06-09 06:48:00,65.8,59.8,29.96,ENE,68,0.0,0.0,81,0.00,CLR,,0.00,WeatherDisplay:10.37,2013-06-09 10:48:00,
2013-06-09 06:53:00,66.0,59.3,29.96,East,90,0.0,0.0,79,0.00,CLR,,0.00,WeatherDisplay:10.37,2013-06-09 10:53:00,
2013-06-09 06:58:00,65.8,59.1,29.96,West,270,0.0,0.0,79,0.00,CLR,,0.00,WeatherDisplay:10.37,2013-06-09 10:58:00,
2013-06-09 07:03:00,66.6,59.5,29.97,SSE,158,1.2,0.0,78,0.00,CLR,,0.00,WeatherDisplay:10.37,2013-06-09 11:03:00,
2013-06-09 07:08:00,67.1,58.9,29.97,NNE,22,1.2,0.0,75,0.00,CLR,,0.00,WeatherDisplay:10.37,2013-06-09 11:08:00,
2013-06-09 07:13:00,67.5,58.5,29.97,South,180,1.1,1.1,73,0.00,CLR,,0.00,WeatherDisplay:10.37,2013-06-09 11:13:00,
2013-06-09 07:18:00,66.2,58.4,29.97,NE,45,1.2,1.2,76,0.00,CLR,,0.00,WeatherDisplay:10.37,2013-06-09 11:18:00,
2013-06-09 07:23:00,67.6,58.2,29.97,NE,45,2.3,2.3,72,0.00,CLR,,0.00,WeatherDisplay:10.37,2013-06-09 11:23:00,
2013-06-09 07:28:00,68.4,59.4,29.98,East,90,0.0,0.0,73,0.00,CLR,,0.00,WeatherDisplay:10.37,2013-06-09 11:28:00,
2013-06-09 07:33:00,69.4,58.0,29.98,ENE,68,5.8,5.8,67,0.00,CLR,,0.00,WeatherDisplay:10.37,2013-06-09 11:33:00,
2013-06-09 07:38:00,69.6,58.2,29.98,NNE,22,2.3,2.3,67,0.00,CLR,,0.00,WeatherDisplay:10.37,2013-06-09 11:38:00,
2013-06-09 07:43:00,70.5,58.2,29.98,SE,135,1.2,0.0,65,0.00,CLR,,0.00,WeatherDisplay:10.37,2013-06-09 11:43:00,
2013-06-09 07:48:00,67.3,57.6,29.98,West,270,5.8,5.8,71,0.00,CLR,,0.00,WeatherDisplay:10.37,2013-06-09 11:48:00,
2013-06-09 07:53:00,66.2,57.3,29.98,ENE,68,4.6,4.6,73,0.00,CLR,,0.00,WeatherDisplay:10.37,2013-06-09 11:53:00,
2013-06-09 07:58:00,66.7,57.0,29.98,East,90,4.6,4.6,71,0.00,CLR,,0.00,WeatherDisplay:10.37,2013-06-09 11:58:00,
2013-06-09 08:03:00,66.9,57.6,29.99,NNE,22,5.3,5.3,72,0.00,CLR,,0.00,WeatherDisplay:10.37,2013-06-09 12:03:00,
2013-06-09 08:08:00,67.3,57.2,29.99,West,270,2.7,2.7,70,0.00,CLR,,0.00,WeatherDisplay:10.37,2013-06-09 12:08:00,
2013-06-09 08:13:00,67.6,56.7,29.99,South,180,5.8,5.8,68,0.00,CLR,,0.00,WeatherDisplay:10.37,2013-06-09 12:13:00,
2013-06-09 08:18:00,68.2,57.2,29.99,NE,45,2.3,2.3,68,0.00,CLR,,0.00,WeatherDisplay:10.37,2013-06-09 12:18:00,
2013-06-09 08:23:00,67.5,56.6,29.99,NE,45,3.5,3.5,68,0.00,CLR,,0.00,WeatherDisplay:10.37,2013-06-09 12:23:00,
2013-06-09 08:28:00,68.0,56.6,29.99,NNE,22,2.3,2.3,67,0.00,CLR,,0.00,WeatherDisplay:10.37,2013-06-09 12:28:00,
2013-06-09 08:33:00,68.9,57.1,29.99,NE,45,0.0,0.0,66,0.00,CLR,,0.00,WeatherDisplay:10.37,2013-06-09 12:33:00,
2013-06-09 08:38:00,68.4,55.7,29.99,NE,45,2.7,3.0,64,0.00,CLR,,0.00,WeatherDisplay:10.37,2013-06-09 12:38:00,
2013-06-09 08:43:00,69.4,55.8,29.99,East,90,3.5,3.5,62,0.00,CLR,,0.00,WeatherDisplay:10.37,2013-06-09 12:43:00,
2013-06-09 08:48:00,70.0,55.9,29.99,NE,45,5.8,5.8,61,0.00,CLR,,0.00,WeatherDisplay:10.37,2013-06-09 12:48:00,
2013-06-09 08:54:00,69.6,56.0,29.99,NNE,22,3.5,3.5,62,0.00,CLR,,0.00,WeatherDisplay:10.37,2013-06-09 12:54:00,
2013-06-09 08:59:00,70.0,55.9,29.99,West,270,7.3,7.3,61,0.00,CLR,,0.00,WeatherDisplay:10.37,2013-06-09 12:59:00,
2013-06-09 09:04:00,70.9,55.9,29.99,NNE,22,3.7,3.7,59,0.00,CLR,,0.00,WeatherDisplay:10.37,2013-06-09 13:04:00,
2013-06-09 09:09:00,71.1,55.6,29.99,South,180,4.6,4.6,58,0.00,CLR,,0.00,WeatherDisplay:10.37,2013-06-09 13:09:00,
2013-06-09 09:14:00,71.4,55.9,29.99,SE,135,3.5,3.5,58,0.00,CLR,,0.00,WeatherDisplay:10.37,2013-06-09 13:14:00,
2013-06-09 09:19:00,71.2,55.2,29.99,SSE,158,5.8,5.8,57,0.00,CLR,,0.00,WeatherDisplay:10.37,2013-06-09 13:19:00,
2013-06-09 09:24:00,71.1,55.1,29.99,West,270,2.3,2.3,57,0.00,CLR,,0.00,WeatherDisplay:10.37,2013-06-09 13:24:00,
2013-06-09 09:29:00,71.1,55.6,29.99,ENE,68,1.2,1.2,58,0.00,CLR,,0.00,WeatherDisplay:10.37,2013-06-09 13:29:00,
2013-06-09 09:34:00,71.1,55.6,29.99,SSE,158,2.3,2.3,58,0.00,CLR,,0.00,WeatherDisplay:10.37,2013-06-09 13:34:00,
2013-06-09 09:39:00,72.0,54.4,29.99,NNE,22,4.6,4.6,54,0.00,CLR,,0.00,WeatherDisplay:10.37,2013-06-09 13:39:00,
2013-06-09 09:44:00,71.1,53.6,29.99,South,180,4.6,4.6,54,0.00,CLR,,0.00,WeatherDisplay:10.37,2013-06-09 13:44:00,
2013-06-09 09:49:00,72.3,54.7,29.99,NNE,22,2.3,2.3,54,0.00,CLR,,0.00,WeatherDisplay:10.37,2013-06-09 13:49:00,
2013-06-09 09:54:00,72.1,54.0,29.99,SSE,158,4.6,4.6,53,0.00,CLR,,0.00,WeatherDisplay:10.37,2013-06-09 13:54:00,
2013-06-09 09:59:00,72.1,54.0,29.99,NE,45,5.8,5.8,53,0.00,CLR,,0.00,WeatherDisplay:10.37,2013-06-09 13:59:00,
2013-06-09 10:04:00,72.0,54.4,30.00,NE,45,3.5,3.5,54,0.00,CLR,,0.00,WeatherDisplay:10.37,2013-06-09 14:04:00,
2013-06-09 10:09:00,71.8,53.2,30.00,SSE,158,5.8,5.8,52,0.00,CLR,,0.00,WeatherDisplay:10.37,2013-06-09 14:09:00,
2013-06-09 10:14:00,73.0,54.3,29.99,NE,45,2.3,2.3,52,0.00,CLR,,0.00,WeatherDisplay:10.37,2013-06-09 14:14:00,
2013-06-09 10:19:00,72.7,54.1,29.99,NNE,22,2.7,2.7,52,0.00,CLR,,0.00,WeatherDisplay:10.37,2013-06-09 14:19:00,
2013-06-09 10:24:00,72.3,53.2,29.99,ESE,112,4.6,4.6,51,0.00,CLR,,0.00,WeatherDisplay:10.37,2013-06-09 14:24:00,
2013-06-09 10:29:00,73.6,53.8,29.99,NE,45,2.7,2.7,50,0.00,CLR,,0.00,WeatherDisplay:10.37,2013-06-09 14:29:00,
2013-06-09 10:34:00,73.8,53.4,29.99,SSE,158,2.7,2.8,49,0.00,CLR,,0.00,WeatherDisplay:10.37,2013-06-09 14:34:00,
2013-06-09 10:39:00,73.9,55.2,29.98,South,180,2.3,2.5,52,0.00,CLR,,0.00,WeatherDisplay:10.37,2013-06-09 14:39:00,
2013-06-09 10:44:00,73.4,55.2,29.98,West,270,2.3,2.3,53,0.00,CLR,,0.00,WeatherDisplay:10.37,2013-06-09 14:44:00,
2013-06-09 10:49:00,74.3,56.1,29.98,NE,45,3.7,3.7,53,0.00,CLR,,0.00,WeatherDisplay:10.37,2013-06-09 14:49:00,
2013-06-09 10:54:00,74.3,56.6,29.99,NE,45,1.2,1.2,54,0.00,CLR,,0.00,WeatherDisplay:10.37,2013-06-09 14:54:00,
2013-06-09 10:59:00,75.6,56.7,29.99,NE,45,3.5,3.5,52,0.00,CLR,,0.00,WeatherDisplay:10.37,2013-06-09 14:59:00,
2013-06-09 11:04:00,75.7,57.4,29.98,ESE,112,5.8,5.8,53,0.00,CLR,,0.00,WeatherDisplay:10.37,2013-06-09 15:04:00,
2013-06-09 11:09:00,76.1,57.2,29.98,West,270,3.7,3.7,52,0.00,CLR,,0.00,WeatherDisplay:10.37,2013-06-09 15:09:00,
2013-06-09 11:14:00,74.8,56.0,29.98,NE,45,4.6,4.6,52,0.00,CLR,,0.00,WeatherDisplay:10.37,2013-06-09 15:14:00,
2013-06-09 11:19:00,74.5,55.7,29.98,WNW,292,2.3,2.3,52,0.00,CLR,,0.00,WeatherDisplay:10.37,2013-06-09 15:19:00,
2013-06-09 11:24:00,75.4,56.5,29.98,ESE,112,2.3,2.6,52,0.00,CLR,,0.00,WeatherDisplay:10.37,2013-06-09 15:24:00,
2013-06-09 11:29:00,74.8,56.5,29.98,East,90,2.3,2.3,53,0.00,CLR,,0.00,WeatherDisplay:10.37,2013-06-09 15:29:00,
2013-06-09 11:34:00,74.7,56.4,29.98,NNE,22,3.5,3.5,53,0.00,CLR,,0.00,WeatherDisplay:10.37,2013-06-09 15:34:00,
2013-06-09 11:39:00,76.3,56.8,29.99,NNE,22,4.7,4.7,51,0.00,CLR,,0.00,WeatherDisplay:10.37,2013-06-09 15:39:00,
2013-06-09 11:44:00,76.6,56.6,29.99,SSE,158,4.2,4.7,50,0.00,CLR,,0.00,WeatherDisplay:10.37,2013-06-09 15:44:00,
2013-06-09 11:49:00,76.5,56.5,29.99,ESE,112,6.3,6.3,50,0.00,CLR,,0.00,WeatherDisplay:10.37,2013-06-09 15:49:00,
2013-06-09 11:54:00,77.2,58.2,29.98,NE,45,6.9,6.9,52,0.00,CLR,,0.00,WeatherDisplay:10.37,2013-06-09 15:54:00,
2013-06-09 11:59:00,76.3,55.7,29.98,NNE,22,3.5,3.5,49,0.00,CLR,,0.00,WeatherDisplay:10.37,2013-06-09 15:59:00,
2013-06-09 12:04:00,76.6,55.4,29.98,West,270,2.3,2.3,48,0.00,CLR,,0.00,WeatherDisplay:10.37,2013-06-09 16:04:00,
2013-06-09 12:09:00,77.5,56.8,29.98,West,270,4.6,4.6,49,0.00,CLR,,0.00,WeatherDisplay:10.37,2013-06-09 16:09:00,
2013-06-09 12:14:00,77.0,55.8,29.98,South,180,4.7,4.7,48,0.00,CLR,,0.00,WeatherDisplay:10.37,2013-06-09 16:14:00,
2013-06-09 12:19:00,76.6,55.4,29.98,NNE,22,6.9,6.9,48,0.00,CLR,,0.00,WeatherDisplay:10.37,2013-06-09 16:19:00,
2013-06-09 12:24:00,77.4,55.6,29.98,NE,45,4.6,4.6,47,0.00,CLR,,0.00,WeatherDisplay:10.37,2013-06-09 16:24:00,
2013-06-09 12:29:00,76.3,56.3,29.97,East,90,3.5,3.5,50,0.00,CLR,,0.00,WeatherDisplay:10.37,2013-06-09 16:29:00,
2013-06-09 12:34:00,75.4,55.5,29.97,WNW,292,2.7,2.7,50,0.00,CLR,,0.00,WeatherDisplay:10.37,2013-06-09 16:34:00,
2013-06-09 12:39:00,76.1,55.0,29.97,West,270,7.3,7.3,48,0.00,CLR,,0.00,WeatherDisplay:10.37,2013-06-09 16:39:00,
2013-06-09 12:44:00,78.3,56.4,29.97,ENE,68,3.7,3.7,47,0.00,CLR,,0.00,WeatherDisplay:10.37,2013-06-09 16:44:00,
2013-06-09 12:49:00,76.8,55.0,29.97,East,90,4.6,4.6,47,0.00,CLR,,0.00,WeatherDisplay:10.37,2013-06-09 16:49:00,
2013-06-09 12:54:00,76.3,55.7,29.97,ENE,68,4.6,4.6,49,0.00,CLR,,0.00,WeatherDisplay:10.37,2013-06-09 16:54:00,
2013-06-09 12:59:00,76.1,56.1,29.97,East,90,5.8,5.8,50,0.00,CLR,,0.00,WeatherDisplay:10.37,2013-06-09 16:59:00,
2013-06-09 13:04:00,76.8,56.2,29.96,NNE,22,5.8,5.8,49,0.00,CLR,,0.00,WeatherDisplay:10.37,2013-06-09 17:04:00,
2013-06-09 13:09:00,75.9,55.9,29.96,South,180,5.8,5.8,50,0.00,CLR,,0.00,WeatherDisplay:10.37,2013-06-09 17:09:00,
2013-06-09 13:14:00,76.6,56.0,29.97,WNW,292,2.3,2.3,49,0.00,CLR,,0.00,WeatherDisplay:10.37,2013-06-09 17:14:00,
2013-06-09 13:19:00,77.2,56.6,29.97,NNE,22,4.6,4.6,49,0.00,CLR,,0.00,WeatherDisplay:10.37,2013-06-09 17:19:00,
2013-06-09 13:24:00,77.9,56.6,29.97,ESE,112,3.7,3.7,48,0.00,CLR,,0.00,WeatherDisplay:10.37,2013-06-09 17:24:00,
2013-06-09 13:29:00,79.0,57.0,29.97,South,180,6.8,6.8,47,0.00,CLR,,0.00,WeatherDisplay:10.37,2013-06-09 17:29:00,
2013-06-09 13:34:00,79.3,59.6,29.97,ESE,112,3.5,3.5,51,0.00,CLR,,0.00,WeatherDisplay:10.37,2013-06-09 17:34:00,
2013-06-09 13:39:00,79.0,57.0,29.96,NNE,22,8.1,8.1,47,0.00,CLR,,0.00,WeatherDisplay:10.37,2013-06-09 17:39:00,
2013-06-09 13:44:00,78.6,57.3,29.96,ENE,68,3.5,3.5,48,0.00,CLR,,0.00,WeatherDisplay:10.37,2013-06-09 17:44:00,
2013-06-09 13:49:00,77.2,57.7,29.96,ENE,68,4.2,4.3,51,0.00,CLR,,0.00,WeatherDisplay:10.37,2013-06-09 17:49:00,
2013-06-09 13:54:00,79.3,56.7,29.96,South,180,3.2,3.2,46,0.00,CLR,,0.00,WeatherDisplay:10.37,2013-06-09 17:54:00,
2013-06-09 14:00:00,79.0,57.0,29.96,NNE,22,3.5,3.5,47,0.00,CLR,,0.00,WeatherDisplay:10.37,2013-06-09 18:00:00,
2013-06-09 14:05:00,79.9,57.3,29.95,SE,135,2.7,2.7,46,0.00,CLR,,0.00,WeatherDisplay:10.37,2013-06-09 18:05:00,
2013-06-09 14:10:00,79.0,57.0,29.95,SSE,158,3.5,3.5,47,0.00,CLR,,0.00,WeatherDisplay:10.37,2013-06-09 18:10:00,
2013-06-09 14:15:00,78.1,57.4,29.96,ESE,113,2.0,6.0,49,0.00,CLR,,0.00,WeatherDisplay:10.37,2013-06-09 18:15:00,
2013-06-09 14:20:00,79.9,56.7,29.96,ESE,112,4.6,4.6,45,0.00,CLR,,0.00,WeatherDisplay:10.37,2013-06-09 18:20:00,
2013-06-09 14:25:00,79.0,58.8,29.96,NE,45,2.7,3.2,50,0.00,CLR,,0.00,WeatherDisplay:10.37,2013-06-09 18:25:00,
2013-06-09 14:30:00,77.2,56.0,29.95,East,87,2.0,6.0,48,0.00,CLR,,0.00,WeatherDisplay:10.37,2013-06-09 18:30:00,
2013-06-09 14:35:00,76.6,56.0,29.95,NE,42,1.0,6.0,49,0.00,CLR,,0.00,WeatherDisplay:10.37,2013-06-09 18:35:00,
2013-06-09 14:40:00,78.4,57.1,29.96,ENE,68,4.6,4.6,48,0.00,CLR,,0.00,WeatherDisplay:10.37,2013-06-09 18:40:00,
2013-06-09 14:45:00,78.2,56.9,29.96,SE,131,5.0,7.0,48,0.00,CLR,,0.00,WeatherDisplay:10.37,2013-06-09 18:45:00,
2013-06-09 14:50:00,77.4,58.4,29.96,ESE,112,1.2,1.2,52,0.00,CLR,,0.00,WeatherDisplay:10.37,2013-06-09 18:50:00,
2013-06-09 14:55:00,76.8,57.8,29.96,WNW,292,3.5,3.5,52,0.00,CLR,,0.00,WeatherDisplay:10.37,2013-06-09 18:55:00,
2013-06-09 15:00:00,76.7,58.3,29.96,NE,44,2.0,5.0,53,0.00,CLR,,0.00,WeatherDisplay:10.37,2013-06-09 19:00:00,
2013-06-09 15:05:00,78.8,58.0,29.96,South,180,2.7,3.3,49,0.00,CLR,,0.00,WeatherDisplay:10.37,2013-06-09 19:05:00,
2013-06-09 15:10:00,78.0,58.9,29.96,SSE,155,0.0,6.0,52,0.00,CLR,,0.00,WeatherDisplay:10.37,2013-06-09 19:10:00,
2013-06-09 15:15:00,79.5,57.5,29.96,SSE,167,3.0,6.0,47,0.00,CLR,,0.00,WeatherDisplay:10.37,2013-06-09 19:15:00,
2013-06-09 15:20:00,79.0,56.5,29.96,West,270,4.6,4.6,46,0.00,CLR,,0.00,WeatherDisplay:10.37,2013-06-09 19:20:00,
2013-06-09 15:25:00,79.6,55.8,29.96,NNE,26,5.0,6.0,44,0.00,CLR,,0.00,WeatherDisplay:10.37,2013-06-09 19:25:00,
2013-06-09 15:30:00,79.9,55.4,29.96,West,270,6.9,6.9,43,0.00,CLR,,0.00,WeatherDisplay:10.37,2013-06-09 19:30:00,
2013-06-09 15:35:00,79.5,54.4,29.96,ESE,112,3.7,3.7,42,0.00,CLR,,0.00,WeatherDisplay:10.37,2013-06-09 19:35:00,
2013-06-09 15:40:00,79.4,54.3,29.96,NE,38,1.0,5.0,42,0.00,CLR,,0.00,WeatherDisplay:10.37,2013-06-09 19:40:00,
2013-06-09 15:45:00,80.4,55.2,29.96,SSE,158,8.1,8.1,42,0.00,CLR,,0.00,WeatherDisplay:10.37,2013-06-09 19:45:00,
2013-06-09 15:50:00,80.8,56.2,29.96,West,270,2.3,2.3,43,0.00,CLR,,0.00,WeatherDisplay:10.37,2013-06-09 19:50:00,
2013-06-09 15:55:00,81.1,55.2,29.96,NNE,22,4.6,4.6,41,0.00,CLR,,0.00,WeatherDisplay:10.37,2013-06-09 19:55:00,
2013-06-09 16:00:00,81.6,56.3,29.96,NE,47,2.0,8.0,42,0.00,CLR,,0.00,WeatherDisplay:10.37,2013-06-09 20:00:00,
2013-06-09 16:05:00,79.4,55.0,29.96,NE,55,1.0,8.0,43,0.00,CLR,,0.00,WeatherDisplay:10.37,2013-06-09 20:05:00,
2013-06-09 16:10:00,79.5,55.0,29.96,East,99,3.0,5.0,43,0.00,CLR,,0.00,WeatherDisplay:10.37,2013-06-09 20:10:00,
2013-06-09 16:15:00,78.5,54.1,29.96,NW,315,2.0,7.0,43,0.00,CLR,,0.00,WeatherDisplay:10.37,2013-06-09 20:15:00,
2013-06-09 16:20:00,79.0,55.2,29.96,WNW,294,2.0,6.0,44,0.00,CLR,,0.00,WeatherDisplay:10.37,2013-06-09 20:20:00,
2013-06-09 16:25:00,79.3,55.5,29.96,East,90,1.2,1.2,44,0.00,CLR,,0.00,WeatherDisplay:10.37,2013-06-09 20:25:00,
2013-06-09 16:30:00,79.9,56.7,29.96,SSE,158,3.5,3.5,45,0.00,CLR,,0.00,WeatherDisplay:10.37,2013-06-09 20:30:00,
2013-06-09 16:35:00,80.6,55.4,29.96,NE,45,5.8,5.8,42,0.00,CLR,,0.00,WeatherDisplay:10.37,2013-06-09 20:35:00,
2013-06-09 16:40:00,81.7,55.7,29.96,East,90,3.5,3.5,41,0.00,CLR,,0.00,WeatherDisplay:10.37,2013-06-09 20:40:00,
2013-06-09 16:45:00,83.3,55.8,29.96,West,265,3.0,6.0,39,0.00,CLR,,0.00,WeatherDisplay:10.37,2013-06-09 20:45:00,
2013-06-09 16:50:00,84.3,56.7,29.96,East,99,2.0,4.0,39,0.00,CLR,,0.00,WeatherDisplay:10.37,2013-06-09 20:50:00,
2013-06-09 16:55:00,84.0,56.4,29.96,SSE,158,4.6,4.6,39,0.00,CLR,,0.00,WeatherDisplay:10.37,2013-06-09 20:55:00,
2013-06-09 17:00:00,83.1,55.5,29.96,ENE,75,2.0,6.0,39,0.00,CLR,,0.00,WeatherDisplay:10.37,2013-06-09 21:00:00,
2013-06-09 17:05:00,84.0,55.7,29.96,ENE,74,3.0,5.0,38,0.00,CLR,,0.00,WeatherDisplay:10.37,2013-06-09 21:05:00,
2013-06-09 17:10:00,81.5,54.8,29.96,East,90,4.7,4.7,40,0.00,CLR,,0.00,WeatherDisplay:10.37,2013-06-09 21:10:00,
2013-06-09 17:15:00,81.2,55.3,29.96,SE,136,2.0,6.0,41,0.00,CLR,,0.00,WeatherDisplay:10.37,2013-06-09 21:15:00,
2013-06-09 17:20:00,82.8,54.6,29.96,WNW,292,5.8,5.8,38,0.00,CLR,,0.00,WeatherDisplay:10.37,2013-06-09 21:20:00,
2013-06-09 17:25:00,80.9,54.3,29.96,NE,39,3.0,5.0,40,0.00,CLR,,0.00,WeatherDisplay:10.37,2013-06-09 21:25:00,
2013-06-09 17:30:00,81.3,56.0,29.96,ENE,65,1.0,3.0,42,0.00,CLR,,0.00,WeatherDisplay:10.37,2013-06-09 21:30:00,
2013-06-09 17:35:00,81.0,55.1,29.96,East,90,4.6,4.6,41,0.00,CLR,,0.00,WeatherDisplay:10.37,2013-06-09 21:35:00,
2013-06-09 17:40:00,79.8,55.3,29.97,East,81,1.0,5.0,43,0.00,CLR,,0.00,WeatherDisplay:10.37,2013-06-09 21:40:00,
2013-06-09 17:45:00,79.9,55.4,29.97,ENE,68,2.0,3.0,43,0.00,CLR,,0.00,WeatherDisplay:10.37,2013-06-09 21:45:00,
2013-06-09 17:50:00,80.8,56.9,29.97,East,90,4.6,4.6,44,0.00,CLR,,0.00,WeatherDisplay:10.37,2013-06-09 21:50:00,
2013-06-09 17:55:00,80.0,54.9,29.97,NE,51,1.0,3.0,42,0.00,CLR,,0.00,WeatherDisplay:10.37,2013-06-09 21:55:00,
2013-06-09 18:00:00,82.8,56.0,29.97,ENE,58,1.0,4.0,40,0.00,CLR,,0.00,WeatherDisplay:10.37,2013-06-09 22:00:00,
2013-06-09 18:05:00,82.4,55.7,29.97,WNW,292,1.2,0.0,40,0.00,CLR,,0.00,WeatherDisplay:10.37,2013-06-09 22:05:00,
2013-06-09 18:10:00,80.7,54.8,29.97,NE,52,1.0,4.0,41,0.00,CLR,,0.00,WeatherDisplay:10.37,2013-06-09 22:10:00,
2013-06-09 18:15:00,83.5,55.2,29.97,NE,45,4.2,4.2,38,0.00,CLR,,0.00,WeatherDisplay:10.37,2013-06-09 22:15:00,
2013-06-09 18:20:00,82.6,55.1,29.97,West,259,2.0,5.0,39,0.00,CLR,,0.00,WeatherDisplay:10.37,2013-06-09 22:20:00,
2013-06-09 18:25:00,79.9,54.8,29.97,NNE,22,3.5,3.5,42,0.00,CLR,,0.00,WeatherDisplay:10.37,2013-06-09 22:25:00,
2013-06-09 18:30:00,79.0,55.8,29.97,South,180,3.5,0.0,45,0.00,CLR,,0.00,WeatherDisplay:10.37,2013-06-09 22:30:00,
2013-06-09 18:35:00,77.4,54.4,29.97,NE,51,2.0,6.0,45,0.00,CLR,,0.00,WeatherDisplay:10.37,2013-06-09 22:35:00,
2013-06-09 18:40:00,77.3,54.9,29.97,NNE,12,2.0,3.0,46,0.00,CLR,,0.00,WeatherDisplay:10.37,2013-06-09 22:40:00,
2013-06-09 18:45:00,76.8,54.5,29.97,SE,135,2.3,2.4,46,0.00,CLR,,0.00,WeatherDisplay:10.37,2013-06-09 22:45:00,
2013-06-09 18:50:00,76.6,54.9,29.98,West,270,1.7,1.7,47,0.00,CLR,,0.00,WeatherDisplay:10.37,2013-06-09 22:50:00,
2013-06-09 18:55:00,75.9,54.2,29.98,WNW,292,3.5,3.5,47,0.00,CLR,,0.00,WeatherDisplay:10.37,2013-06-09 22:55:00,
2013-06-09 19:00:00,75.7,54.6,29.98,West,270,2.2,2.3,48,0.00,CLR,,0.00,WeatherDisplay:10.37,2013-06-09 23:00:00,
2013-06-09 19:05:00,75.6,55.1,29.98,WNW,301,0.0,3.0,49,0.00,CLR,,0.00,WeatherDisplay:10.37,2013-06-09 23:05:00,
2013-06-09 19:10:00,75.2,55.3,29.98,SSE,158,1.2,1.2,50,0.00,CLR,,0.00,WeatherDisplay:10.37,2013-06-09 23:10:00,
2013-06-09 19:15:00,74.8,54.9,29.98,WSW,252,1.0,2.0,50,0.00,CLR,,0.00,WeatherDisplay:10.37,2013-06-09 23:15:00,
2013-06-09 19:20:00,74.5,54.6,29.98,West,270,1.2,1.2,50,0.00,CLR,,0.00,WeatherDisplay:10.37,2013-06-09 23:20:00,
2013-06-09 19:25:00,74.1,54.8,29.98,West,270,2.7,2.7,51,0.00,CLR,,0.00,WeatherDisplay:10.37,2013-06-09 23:25:00,
2013-06-09 19:30:00,73.9,55.7,29.99,SSW,206,0.0,3.0,53,0.00,CLR,,0.00,WeatherDisplay:10.37,2013-06-09 23:30:00,
2013-06-09 19:35:00,73.8,55.6,29.99,South,178,0.0,0.0,53,0.00,CLR,,0.00,WeatherDisplay:10.37,2013-06-09 23:35:00,
2013-06-09 19:40:00,73.4,55.7,29.99,West,270,0.0,0.0,54,0.00,CLR,,0.00,WeatherDisplay:10.37,2013-06-09 23:40:00,
2013-06-09 19:45:00,72.9,55.8,29.99,SE,135,0.0,0.0,55,0.00,CLR,,0.00,WeatherDisplay:10.37,2013-06-09 23:45:00,
2013-06-09 19:50:00,72.3,55.7,30.00,SE,135,0.0,0.0,56,0.00,CLR,,0.00,WeatherDisplay:10.37,2013-06-09 23:50:00,
2013-06-09 19:55:00,71.9,55.9,30.00,SSW,196,0.0,0.0,57,0.00,CLR,,0.00,WeatherDisplay:10.37,2013-06-09 23:55:00,
2013-06-09 20:00:00,71.2,55.2,30.00,SSE,158,0.0,0.0,57,0.00,CLR,,0.00,WeatherDisplay:10.37,2013-06-10 00:00:00,
2013-06-09 20:05:00,70.9,54.9,30.00,SSE,158,0.0,0.0,57,0.00,CLR,,0.00,WeatherDisplay:10.37,2013-06-10 00:05:00,
2013-06-09 20:10:00,70.3,54.3,30.00,SSE,158,0.0,0.0,57,0.00,CLR,,0.00,WeatherDisplay:10.37,2013-06-10 00:10:00,
2013-06-09 20:15:00,69.9,53.9,30.00,South,169,0.0,0.0,57,0.00,CLR,,0.00,WeatherDisplay:10.37,2013-06-10 00:15:00,
2013-06-09 20:20:00,69.1,54.2,30.00,ENE,68,0.0,0.0,59,0.00,CLR,,0.00,WeatherDisplay:10.37,2013-06-10 00:20:00,
2013-06-09 20:25:00,68.7,54.3,30.00,NE,40,0.0,0.0,60,0.00,CLR,,0.00,WeatherDisplay:10.37,2013-06-10 00:25:00,
2013-06-09 20:30:00,68.2,54.3,30.00,WNW,292,0.0,0.0,61,0.00,CLR,,0.00,WeatherDisplay:10.37,2013-06-10 00:30:00,
2013-06-09 20:35:00,67.5,54.9,30.00,WNW,292,0.0,0.0,64,0.00,CLR,,0.00,WeatherDisplay:10.37,2013-06-10 00:35:00,
2013-06-09 20:40:00,67.5,54.5,30.00,West,270,0.0,0.0,63,0.00,CLR,,0.00,WeatherDisplay:10.37,2013-06-10 00:40:00,
2013-06-09 20:45:00,66.9,53.9,30.00,West,270,0.0,0.0,63,0.00,CLR,,0.00,WeatherDisplay:10.37,2013-06-10 00:45:00,
2013-06-09 20:50:00,66.4,54.3,30.00,SE,135,0.0,0.0,65,0.00,CLR,,0.00,WeatherDisplay:10.37,2013-06-10 00:50:00,
2013-06-09 20:55:00,65.8,54.5,30.00,SSE,158,0.0,0.0,67,0.00,CLR,,0.00,WeatherDisplay:10.37,2013-06-10 00:55:00,
2013-06-09 21:00:00,65.5,54.2,30.00,West,270,0.0,0.0,67,0.00,CLR,,0.00,WeatherDisplay:10.37,2013-06-10 01:00:00,
2013-06-09 21:05:00,65.3,54.1,30.01,NE,45,0.0,0.0,67,0.00,CLR,,0.00,WeatherDisplay:10.37,2013-06-10 01:05:00,
2013-06-09 21:10:00,64.9,54.1,30.01,WNW,292,0.0,0.0,68,0.00,CLR,,0.00,WeatherDisplay:10.37,2013-06-10 01:10:00,
2013-06-09 21:15:00,64.8,54.4,30.01,West,270,0.0,0.0,69,0.00,CLR,,0.00,WeatherDisplay:10.37,2013-06-10 01:15:00,
2013-06-09 21:20:00,64.2,54.6,30.01,West,270,0.0,0.0,71,0.00,CLR,,0.00,WeatherDisplay:10.37,2013-06-10 01:20:00,
2013-06-09 21:25:00,64.0,54.8,30.01,West,270,0.0,0.0,72,0.00,CLR,,0.00,WeatherDisplay:10.37,2013-06-10 01:25:00,
2013-06-09 21:30:00,63.9,55.1,30.02,NNE,22,0.0,0.0,73,0.00,CLR,,0.00,WeatherDisplay:10.37,2013-06-10 01:30:00,
2013-06-09 21:35:00,63.3,54.9,30.02,WSW,248,0.0,0.0,74,0.00,CLR,,0.00,WeatherDisplay:10.37,2013-06-10 01:35:00,
2013-06-09 21:40:00,63.0,54.9,30.02,WNW,292,0.0,0.0,75,0.00,CLR,,0.00,WeatherDisplay:10.37,2013-06-10 01:40:00,
2013-06-09 21:45:00,62.6,54.6,30.02,West,270,0.0,0.0,75,0.00,CLR,,0.00,WeatherDisplay:10.37,2013-06-10 01:45:00,
2013-06-09 21:50:00,62.4,54.4,30.03,ESE,112,0.0,0.0,75,0.00,CLR,,0.00,WeatherDisplay:10.37,2013-06-10 01:50:00,
2013-06-09 21:55:00,62.1,54.4,30.03,WNW,292,0.0,0.0,76,0.00,CLR,,0.00,WeatherDisplay:10.37,2013-06-10 01:55:00,
2013-06-09 22:00:00,62.1,54.8,30.03,WNW,292,0.0,0.0,77,0.00,CLR,,0.00,WeatherDisplay:10.37,2013-06-10 02:00:00,
2013-06-09 22:05:00,61.9,54.6,30.03,West,270,0.0,0.0,77,0.00,CLR,,0.00,WeatherDisplay:10.37,2013-06-10 02:05:00,
2013-06-09 22:10:00,61.7,54.8,30.03,ENE,68,0.0,0.0,78,0.00,CLR,,0.00,WeatherDisplay:10.37,2013-06-10 02:10:00,
2013-06-09 22:15:00,61.5,54.6,30.03,WNW,292,0.0,0.0,78,0.00,CLR,,0.00,WeatherDisplay:10.37,2013-06-10 02:15:00,
2013-06-09 22:20:00,61.3,54.7,30.03,WNW,292,0.0,0.0,79,0.00,CLR,,0.00,WeatherDisplay:10.37,2013-06-10 02:20:00,
2013-06-09 22:25:00,61.0,54.4,30.03,WNW,292,0.0,0.0,79,0.00,CLR,,0.00,WeatherDisplay:10.37,2013-06-10 02:25:00,
2013-06-09 22:30:00,61.0,54.4,30.03,WNW,292,0.0,0.0,79,0.00,CLR,,0.00,WeatherDisplay:10.37,2013-06-10 02:30:00,
2013-06-09 22:35:00,60.8,54.6,30.03,NE,45,0.0,0.0,80,0.00,CLR,,0.00,WeatherDisplay:10.37,2013-06-10 02:35:00,
2013-06-09 22:40:00,60.8,54.9,30.04,WNW,292,0.0,0.0,81,0.00,CLR,,0.00,WeatherDisplay:10.37,2013-06-10 02:40:00,
2013-06-09 22:45:00,60.8,55.3,30.04,NW,315,0.0,0.0,82,0.00,CLR,,0.00,WeatherDisplay:10.37,2013-06-10 02:45:00,
2013-06-09 22:50:00,60.8,55.3,30.04,WNW,292,0.0,0.0,82,0.00,CLR,,0.00,WeatherDisplay:10.37,2013-06-10 02:50:00,
2013-06-09 22:55:00,60.4,54.5,30.04,NW,315,0.0,0.0,81,0.00,CLR,,0.00,WeatherDisplay:10.37,2013-06-10 02:55:00,
2013-06-09 23:00:00,60.1,54.2,30.04,NW,315,0.0,0.0,81,0.00,CLR,,0.00,WeatherDisplay:10.37,2013-06-10 03:00:00,
2013-06-09 23:05:00,59.9,54.4,30.04,NE,45,0.0,0.0,82,0.00,CLR,,0.00,WeatherDisplay:10.37,2013-06-10 03:05:00,
2013-06-09 23:10:00,59.7,54.5,30.04,NE,45,0.0,0.0,83,0.00,CLR,,0.00,WeatherDisplay:10.37,2013-06-10 03:10:00,
2013-06-09 23:15:00,59.5,54.3,30.04,NE,45,0.0,0.0,83,0.00,CLR,,0.00,WeatherDisplay:10.37,2013-06-10 03:15:00,
2013-06-09 23:20:00,59.5,54.3,30.04,NW,315,0.0,0.0,83,0.00,CLR,,0.00,WeatherDisplay:10.37,2013-06-10 03:20:00,
2013-06-09 23:25:00,59.2,54.4,30.05,WNW,292,0.0,0.0,84,0.00,CLR,,0.00,WeatherDisplay:10.37,2013-06-10 03:25:00,
2013-06-09 23:30:00,59.2,54.4,30.05,NNE,22,0.0,0.0,84,0.00,CLR,,0.00,WeatherDisplay:10.37,2013-06-10 03:30:00,
2013-06-09 23:35:00,59.4,54.6,30.05,WNW,292,0.0,0.0,84,0.00,CLR,,0.00,WeatherDisplay:10.37,2013-06-10 03:35:00,
2013-06-09 23:40:00,59.7,54.9,30.05,NE,45,0.0,0.0,84,0.00,CLR,,0.00,WeatherDisplay:10.37,2013-06-10 03:40:00,
2013-06-09 23:45:00,59.9,54.7,30.05,West,270,0.0,0.0,83,0.00,CLR,,0.00,WeatherDisplay:10.37,2013-06-10 03:45:00,
2013-06-09 23:50:00,59.5,54.3,30.05,West,270,0.0,0.0,83,0.00,CLR,,0.00,WeatherDisplay:10.37,2013-06-10 03:50:00,
2013-06-09 23:55:00,59.4,54.6,30.05,NE,45,0.0,0.0,84,0.00,CLR,,0.00,WeatherDisplay:10.37,2013-06-10 03:55:00,